Flugplatz Halle-Oppin

Für EDAQ sind keine METAR/TAF Berichte vorhanden.
Es werden die Flugwettermeldungen vom Flugplatz Leipzig Halle in 19 km Entfernung angezeigt.

Bericht für EDDP

vom 18.01. um 16:50 UTC

Wind 9 kt aus 240°

Sichtweite 10 km oder mehr

gute Sicht, keine Wolken < 5000 ft, keine CB, keine Wettererscheinungen (CAVOK)

Temperatur 5.0°C

Taupunkt 1.0°C

Luftfeuchtigkeit 75%

Luftdruck 1024 hPa

keine wesentliche Wetteränderung innerhalb den nächsten 2 Stunden zu erwarten

EDDP 181650Z 24009KT CAVOK 05/01 Q1024 NOSIG

Prognose für EDDP

vom 18.01. um 00:00 UTC

Zwischen 00:00 UTC und 00:00 UTC

Wind 10 kt aus 240°

Sichtweite 10 km oder mehr

aufgelockert bewölkt in 2500 ft


Zwischen 00:00 UTC und 00:00 UTC zeitweise mit einer Wahrscheinlichkeit von 30%

Sichtweite 2000 m

schwacher Schneeschauer

aufgebrochene Bewölkung in 800 ft


Am 19.01. zwischen 00:00 und 00:00 UTC übergehend zu

Wind 7 kt aus 300°

Sichtweite 10 km oder mehr

aufgelockert bewölkt in 2500 ft

TAF EDDP 181100Z 1812/1912 24010KT 9999 SCT025 PROB30 TEMPO 1823/1907 2000 -SHSN BKN008TCU BECMG 1908/1911 30007KT
Impressum